Time;durP1;ratioP1;P1;durP2;ratioP2;P2;SDS_P1;SDS_P2;PMS_P1;PMS_P2;Temp;Humidity;BMP_temperature;BMP_pressure;BME280_temperature;BME280_humidity;BME280_pressure;Samples;Min_cycle;Max_cycle;Signal;HPM_P1;HPM_P2
2023/06/27 00:00:13;;;;;;;2.90;2.00;;;;;;;19.33;99.93;98577.13;107864;1308;22411;-43
2023/06/27 00:02:40;;;;;;;3.10;2.30;;;;;;;19.31;100.00;98571.92;107872;1308;23380;-52
2023/06/27 00:05:06;;;;;;;5.60;2.50;;;;;;;19.31;99.87;98571.45;107899;1308;22450;-52
2023/06/27 00:07:31;;;;;;;2.40;2.00;;;;;;;19.33;100.00;98574.73;107863;1308;22113;-46
2023/06/27 00:09:56;;;;;;;7.70;2.70;;;;;;;19.36;99.42;98571.73;107873;1308;22206;-44
2023/06/27 00:12:22;;;;;;;3.80;2.50;;;;;;;19.39;99.28;98578.23;107886;1308;22210;-55
2023/06/27 00:14:48;;;;;;;4.40;2.20;;;;;;;19.38;98.79;98580.98;107884;1308;22221;-50
2023/06/27 00:17:14;;;;;;;6.50;2.40;;;;;;;19.38;99.04;98578.88;107874;1308;22209;-48
2023/06/27 00:19:40;;;;;;;4.30;2.30;;;;;;;19.36;100.00;98574.77;107890;1308;22259;-52
2023/06/27 00:22:09;;;;;;;3.30;2.50;;;;;;;19.38;100.00;98577.61;107849;1292;22213;-46
2023/06/27 00:24:35;;;;;;;7.50;2.10;;;;;;;19.38;99.94;98578.18;107893;1307;22222;-51
2023/06/27 00:27:01;;;;;;;2.60;2.40;;;;;;;19.36;99.95;98573.38;107885;1302;22312;-51
2023/06/27 00:29:27;;;;;;;2.80;2.40;;;;;;;19.38;100.00;98576.38;107871;1308;22233;-48
2023/06/27 00:31:52;;;;;;;2.50;2.30;;;;;;;19.40;100.00;98575.29;107892;1308;22197;-46
2023/06/27 00:34:18;;;;;;;4.50;2.50;;;;;;;19.39;100.00;98567.41;107850;1308;22240;-43
2023/06/27 00:36:43;;;;;;;2.60;2.40;;;;;;;19.37;100.00;98553.85;107878;1308;22398;-47
2023/06/27 00:39:08;;;;;;;4.00;2.40;;;;;;;19.39;100.00;98553.33;107868;1307;22400;-47
2023/06/27 00:41:34;;;;;;;4.20;2.70;;;;;;;19.41;100.00;98554.60;107847;1308;24133;-49
2023/06/27 00:43:59;;;;;;;4.10;2.30;;;;;;;19.40;100.00;98551.27;107845;1308;22969;-43
2023/06/27 00:46:39;;;;;;;3.30;3.00;;;;;;;19.44;100.00;98546.95;107886;1308;22222;-47
2023/06/27 00:49:10;;;;;;;3.20;2.90;;;;;;;19.45;100.00;98535.26;107869;1308;22409;-46
2023/06/27 00:51:36;;;;;;;3.00;2.40;;;;;;;19.49;100.00;98528.17;107867;1308;22358;-47
2023/06/27 00:54:03;;;;;;;5.70;3.20;;;;;;;19.52;100.00;98520.13;107906;1308;22242;-44
2023/06/27 00:56:28;;;;;;;3.40;3.10;;;;;;;19.54;100.00;98504.96;107847;1308;22401;-50
2023/06/27 00:58:57;;;;;;;3.40;3.10;;;;;;;19.54;100.00;98488.80;107866;1308;22239;-52
2023/06/27 01:01:22;;;;;;;5.40;3.30;;;;;;;19.54;100.00;98479.57;107863;1308;22443;-45
2023/06/27 01:03:47;;;;;;;4.80;3.00;;;;;;;19.57;100.00;98473.44;107897;1308;22908;-48
2023/06/27 01:06:24;;;;;;;3.50;3.20;;;;;;;19.59;100.00;98469.14;107910;1308;22207;-49
2023/06/27 01:09:00;;;;;;;5.20;3.60;;;;;;;19.63;100.00;98462.89;107871;1308;22412;-51
2023/06/27 01:11:32;;;;;;;8.00;4.00;;;;;;;19.63;100.00;98455.52;107884;1308;22484;-46
2023/06/27 01:14:00;;;;;;;4.70;4.10;;;;;;;19.62;100.00;98449.84;107878;1308;23160;-46
2023/06/27 01:16:29;;;;;;;5.20;4.10;;;;;;;19.62;100.00;98449.30;107860;1308;22459;-49
2023/06/27 01:18:56;;;;;;;8.40;4.30;;;;;;;19.63;100.00;98448.82;107876;1308;22227;-40
2023/06/27 01:21:27;;;;;;;6.90;4.60;;;;;;;19.67;100.00;98456.96;107879;1308;22247;-46
2023/06/27 01:23:54;;;;;;;8.30;4.90;;;;;;;19.70;100.00;98472.40;107895;1308;22255;-46
2023/06/27 01:26:20;;;;;;;5.80;4.80;;;;;;;19.72;100.00;98489.59;107724;1308;22254;-51
2023/06/27 01:28:46;;;;;;;6.80;4.90;;;;;;;19.70;100.00;98500.38;107885;1308;22215;-47
2023/06/27 01:31:27;;;;;;;6.80;5.00;;;;;;;19.66;100.00;98516.27;107898;1308;22202;-49
2023/06/27 01:34:19;;;;;;;8.40;4.90;;;;;;;19.60;100.00;98519.42;107890;1308;22393;-49
2023/06/27 01:36:50;;;;;;;7.00;5.10;;;;;;;19.55;100.00;98521.61;107874;1308;22423;-51
2023/06/27 01:39:21;;;;;;;7.30;5.20;;;;;;;19.47;100.00;98521.20;107881;1308;22279;-44
2023/06/27 01:41:51;;;;;;;6.60;4.90;;;;;;;19.41;100.00;98516.55;107902;1308;22406;-52
2023/06/27 01:44:19;;;;;;;13.30;5.90;;;;;;;19.27;100.00;98504.39;107901;1308;22221;-51
2023/06/27 01:46:45;;;;;;;;;;;;;;;19.19;100.00;98495.39;107895;1308;22472;-48
2023/06/27 01:49:10;;;;;;;6.70;5.60;;;;;;;19.20;100.00;98494.75;107873;1308;23160;-50
2023/06/27 01:51:36;;;;;;;15.90;5.60;;;;;;;19.19;100.00;98498.91;107879;1308;22406;-47
2023/06/27 01:54:01;;;;;;;6.40;5.50;;;;;;;19.11;100.00;98499.71;107899;1308;22298;-44
2023/06/27 01:56:27;;;;;;;6.70;4.90;;;;;;;19.07;100.00;98505.80;107892;1307;22282;-53
2023/06/27 01:58:52;;;;;;;5.90;5.00;;;;;;;19.07;100.00;98508.35;107874;1307;22403;-53
2023/06/27 02:01:18;;;;;;;9.40;4.90;;;;;;;19.01;100.00;98508.62;107886;1308;22238;-46
2023/06/27 02:03:43;;;;;;;7.50;5.00;;;;;;;18.98;100.00;98507.30;107895;1308;22386;-45
2023/06/27 02:06:08;;;;;;;6.90;4.90;;;;;;;18.97;100.00;98506.96;107873;1308;23332;-45
2023/06/27 02:08:34;;;;;;;9.40;5.40;;;;;;;18.95;100.00;98504.19;107880;1308;22913;-52
2023/06/27 02:10:59;;;;;;;6.10;5.30;;;;;;;18.92;100.00;98501.81;107914;1308;22393;-52
2023/06/27 02:13:25;;;;;;;7.70;5.30;;;;;;;18.93;100.00;98497.91;107871;1308;23026;-49
2023/06/27 02:15:50;;;;;;;7.40;5.70;;;;;;;18.91;100.00;98492.93;107875;1308;22299;-51
2023/06/27 02:18:16;;;;;;;9.70;6.10;;;;;;;18.88;100.00;98490.89;107893;1308;22094;-53
2023/06/27 02:20:41;;;;;;;8.80;5.60;;;;;;;18.83;100.00;98495.70;107889;1308;23076;-44
2023/06/27 02:23:06;;;;;;;8.50;6.00;;;;;;;18.81;100.00;98497.98;107903;1308;22915;-51
2023/06/27 02:25:32;;;;;;;9.70;6.00;;;;;;;18.82;100.00;98502.34;107911;1308;22237;-43
2023/06/27 02:27:57;;;;;;;8.60;6.30;;;;;;;18.81;100.00;98502.23;107927;1308;22228;-48
2023/06/27 02:30:22;;;;;;;8.10;6.20;;;;;;;18.78;100.00;98500.02;107889;1308;22106;-44
2023/06/27 02:32:47;;;;;;;9.30;7.00;;;;;;;18.75;100.00;98507.48;107910;1291;22227;-44
2023/06/27 02:35:15;;;;;;;8.80;6.80;;;;;;;18.70;100.00;98502.42;107902;1308;22208;-44
2023/06/27 02:37:41;;;;;;;9.00;7.20;;;;;;;18.68;100.00;98501.29;107869;1308;22312;-46
2023/06/27 02:40:07;;;;;;;11.40;7.50;;;;;;;18.69;100.00;98501.50;107909;1307;22239;-47
2023/06/27 02:42:32;;;;;;;8.70;7.70;;;;;;;18.71;100.00;98506.23;107900;1308;22112;-51
2023/06/27 02:44:57;;;;;;;12.20;9.20;;;;;;;18.72;100.00;98506.34;107896;1308;23075;-49
2023/06/27 02:47:23;;;;;;;10.90;8.30;;;;;;;18.70;100.00;98502.46;107876;1308;22242;-46
2023/06/27 02:49:48;;;;;;;10.00;8.10;;;;;;;18.67;100.00;98502.39;107881;1308;23204;-56
2023/06/27 02:52:13;;;;;;;15.30;9.80;;;;;;;18.64;100.00;98501.63;107907;1285;22264;-49
2023/06/27 02:54:38;;;;;;;13.20;10.00;;;;;;;18.59;100.00;98500.36;107905;1308;22314;-44
2023/06/27 02:57:04;;;;;;;18.90;9.90;;;;;;;18.60;100.00;98496.40;107878;1308;23054;-46
2023/06/27 02:59:29;;;;;;;14.10;9.20;;;;;;;18.63;100.00;98495.56;107875;1308;22429;-46
2023/06/27 03:01:55;;;;;;;16.90;10.00;;;;;;;18.66;100.00;98493.14;107979;1306;22277;-42
2023/06/27 03:04:23;;;;;;;13.40;9.30;;;;;;;18.67;100.00;98496.52;108019;1306;23229;-50
2023/06/27 03:06:49;;;;;;;10.50;9.10;;;;;;;18.67;100.00;98498.69;108043;1306;22228;-52
2023/06/27 03:09:16;;;;;;;14.10;9.30;;;;;;;18.67;100.00;98501.20;108035;1306;23040;-50
2023/06/27 03:11:41;;;;;;;11.10;8.50;;;;;;;18.66;100.00;98502.50;108018;1306;22278;-50
2023/06/27 03:14:07;;;;;;;12.50;9.00;;;;;;;18.67;100.00;98505.08;108039;1306;22206;-45
2023/06/27 03:16:32;;;;;;;11.60;7.80;;;;;;;18.65;100.00;98501.93;107915;1306;149177;-49
2023/06/27 03:18:57;;;;;;;9.70;8.00;;;;;;;18.66;100.00;98504.51;108027;1306;24442;-47
2023/06/27 03:21:22;;;;;;;8.90;7.40;;;;;;;18.66;100.00;98503.17;108041;1306;22223;-48
2023/06/27 03:23:48;;;;;;;7.30;6.60;;;;;;;18.64;100.00;98509.11;108052;1306;23090;-45
2023/06/27 03:26:13;;;;;;;8.70;6.80;;;;;;;18.69;100.00;98513.40;108026;1306;22379;-49
2023/06/27 03:28:40;;;;;;;11.10;7.90;;;;;;;18.66;100.00;98519.61;108045;1306;22437;-55
2023/06/27 03:31:05;;;;;;;7.00;5.70;;;;;;;18.60;100.00;98526.02;108034;1306;22412;-43
2023/06/27 03:33:30;;;;;;;9.50;5.60;;;;;;;18.55;100.00;98529.37;108046;1306;23020;-48
2023/06/27 03:35:56;;;;;;;5.90;4.60;;;;;;;18.53;100.00;98535.98;108028;1306;22281;-50
2023/06/27 03:40:20;;;;;;;5.70;3.90;;;;;;;18.35;100.00;98548.02;106888;1306;545209;-51
2023/06/27 03:42:45;;;;;;;13.40;4.50;;;;;;;18.26;100.00;98549.83;107263;1314;22272;-47
2023/06/27 03:45:11;;;;;;;6.50;3.90;;;;;;;18.25;100.00;98543.88;107233;1314;23462;-49
2023/06/27 03:47:37;;;;;;;7.60;4.40;;;;;;;18.26;100.00;98541.31;107244;1314;22162;-44
2023/06/27 03:50:03;;;;;;;6.20;3.70;;;;;;;18.19;100.00;98538.77;107451;1312;22428;-43
2023/06/27 03:52:28;;;;;;;8.00;3.70;;;;;;;18.18;100.00;98548.33;107448;1312;22925;-48
2023/06/27 03:54:53;;;;;;;7.50;3.90;;;;;;;18.17;100.00;98557.42;107570;1309;124050;-47
2023/06/27 03:57:19;;;;;;;8.00;4.30;;;;;;;18.16;100.00;98561.11;107690;1310;22416;-42
2023/06/27 03:59:44;;;;;;;6.00;4.60;;;;;;;18.12;100.00;98555.11;107666;1309;23196;-50
2023/06/27 04:02:09;;;;;;;7.20;4.10;;;;;;;18.19;100.00;98558.61;107712;1309;22319;-46
2023/06/27 04:04:35;;;;;;;6.60;4.00;;;;;;;18.16;100.00;98558.61;107679;1309;23230;-49
2023/06/27 04:07:00;;;;;;;9.70;4.50;;;;;;;18.10;100.00;98562.24;107679;1309;22455;-50
2023/06/27 04:09:25;;;;;;;10.60;4.90;;;;;;;18.14;100.00;98565.05;107689;1309;22252;-50
2023/06/27 04:11:50;;;;;;;7.40;4.50;;;;;;;18.16;100.00;98564.27;107678;1309;22238;-55
2023/06/27 04:14:17;;;;;;;8.30;4.70;;;;;;;18.20;100.00;98563.91;107699;1309;22312;-54
2023/06/27 04:16:43;;;;;;;7.50;5.20;;;;;;;18.19;100.00;98561.34;107687;1310;23355;-46
2023/06/27 04:19:09;;;;;;;15.40;5.80;;;;;;;18.19;100.00;98569.13;107676;1295;22223;-50
2023/06/27 04:21:34;;;;;;;9.90;5.10;;;;;;;18.15;100.00;98561.16;107707;1309;23011;-49
2023/06/27 04:24:00;;;;;;;8.10;4.60;;;;;;;18.19;100.00;98569.71;107656;1309;22244;-52
2023/06/27 04:26:25;;;;;;;15.90;5.30;;;;;;;18.11;100.00;98582.58;107690;1309;22290;-46
2023/06/27 04:28:51;;;;;;;10.10;5.20;;;;;;;18.09;100.00;98585.05;107693;1309;22481;-52
2023/06/27 04:31:16;;;;;;;9.00;5.50;;;;;;;18.12;100.00;98594.42;107708;1309;23015;-46
2023/06/27 04:33:41;;;;;;;10.50;6.00;;;;;;;18.09;100.00;98603.67;107706;1309;22228;-47
2023/06/27 04:36:08;;;;;;;9.40;5.60;;;;;;;18.09;100.00;98608.81;107704;1309;22403;-51
2023/06/27 04:38:38;;;;;;;9.40;4.80;;;;;;;18.05;100.00;98610.98;107719;1309;22482;-44
2023/06/27 04:41:04;;;;;;;12.10;5.10;;;;;;;17.98;100.00;98612.97;107700;1309;22657;-47
2023/06/27 04:43:30;;;;;;;12.00;5.20;;;;;;;17.98;100.00;98612.67;107709;1309;22471;-51
2023/06/27 04:45:55;;;;;;;16.20;5.40;;;;;;;17.97;100.00;98609.08;107691;1309;22431;-47
2023/06/27 04:48:20;;;;;;;11.80;4.90;;;;;;;17.96;100.00;98609.84;107710;1309;22250;-43
2023/06/27 04:50:46;;;;;;;9.80;4.60;;;;;;;17.97;99.97;98605.31;107703;1309;22241;-44
2023/06/27 04:53:11;;;;;;;7.50;4.30;;;;;;;17.94;99.38;98607.27;107692;1309;22248;-43
2023/06/27 04:55:36;;;;;;;8.30;4.20;;;;;;;17.80;98.89;98608.50;107721;1309;22472;-53
2023/06/27 04:58:01;;;;;;;12.70;4.40;;;;;;;17.84;99.25;98609.05;107671;1309;23033;-49
2023/06/27 05:00:27;;;;;;;7.10;4.40;;;;;;;17.85;99.12;98616.38;107668;1309;22215;-53
2023/06/27 05:02:52;;;;;;;14.00;4.30;;;;;;;17.83;98.24;98627.60;107675;1309;22301;-46
2023/06/27 05:05:18;;;;;;;10.40;4.00;;;;;;;17.77;97.69;98630.98;107677;1309;22179;-41
2023/06/27 05:07:43;;;;;;;10.40;3.80;;;;;;;17.72;97.94;98628.64;107700;1309;22217;-49
2023/06/27 05:10:09;;;;;;;11.80;4.30;;;;;;;17.68;97.54;98631.98;107680;1309;23179;-45
2023/06/27 05:12:34;;;;;;;8.30;3.60;;;;;;;17.63;97.39;98636.87;107706;1309;23030;-47
2023/06/27 05:14:59;;;;;;;10.50;3.30;;;;;;;17.66;97.08;98641.62;107671;1309;22502;-49
2023/06/27 05:17:24;;;;;;;13.50;3.50;;;;;;;17.49;97.04;98645.65;107639;1309;22564;-56
2023/06/27 05:19:50;;;;;;;7.60;3.70;;;;;;;17.47;97.21;98645.52;107553;1310;22231;-51
2023/06/27 05:22:15;;;;;;;9.10;3.40;;;;;;;17.49;96.96;98641.80;107569;1310;22235;-52
2023/06/27 05:24:40;;;;;;;6.60;3.80;;;;;;;17.51;96.74;98647.23;107555;1310;22259;-47
2023/06/27 05:27:05;;;;;;;11.00;3.70;;;;;;;17.50;96.57;98640.27;107549;1311;22464;-50
2023/06/27 05:29:31;;;;;;;9.10;3.00;;;;;;;17.57;96.33;98649.35;107548;1310;22397;-47
2023/06/27 05:31:56;;;;;;;10.00;3.50;;;;;;;17.60;95.96;98649.06;107581;1310;23130;-53
2023/06/27 05:34:21;;;;;;;9.90;3.10;;;;;;;17.60;95.84;98641.95;107570;1310;22230;-41
2023/06/27 05:36:47;;;;;;;9.40;3.40;;;;;;;17.64;95.38;98645.86;107553;1310;23081;-55
2023/06/27 05:39:12;;;;;;;11.00;3.60;;;;;;;17.68;94.66;98649.70;107563;1310;22241;-52
2023/06/27 05:41:37;;;;;;;8.50;3.00;;;;;;;17.74;94.60;98645.09;107543;1310;22253;-46
2023/06/27 05:44:03;;;;;;;11.90;3.30;;;;;;;17.88;94.51;98647.16;107557;1310;22455;-47
2023/06/27 05:46:28;;;;;;;16.00;3.10;;;;;;;17.91;93.58;98651.79;107563;1311;22121;-51
2023/06/27 05:48:53;;;;;;;6.90;3.20;;;;;;;17.91;92.92;98645.69;107567;1310;22216;-48
2023/06/27 05:51:19;;;;;;;5.20;2.90;;;;;;;17.96;92.34;98641.38;107568;1310;22483;-44
2023/06/27 05:53:44;;;;;;;11.10;3.00;;;;;;;17.99;91.79;98650.33;107558;1296;22163;-46
2023/06/27 05:56:09;;;;;;;9.70;3.50;;;;;;;18.00;91.34;98648.60;107547;1310;22265;-54
2023/06/27 05:58:35;;;;;;;6.10;3.10;;;;;;;18.04;91.09;98653.95;107557;1311;22321;-47
2023/06/27 06:01:00;;;;;;;9.10;2.90;;;;;;;17.98;90.49;98662.15;107555;1311;22247;-52
2023/06/27 06:03:26;;;;;;;13.80;3.20;;;;;;;17.97;90.11;98664.69;107545;1310;22223;-46
2023/06/27 06:05:51;;;;;;;10.10;3.00;;;;;;;17.91;89.67;98661.41;107563;1310;22252;-49
2023/06/27 06:08:16;;;;;;;6.80;3.00;;;;;;;17.83;89.35;98664.28;107560;1310;22418;-48
2023/06/27 06:10:42;;;;;;;6.50;2.50;;;;;;;17.76;89.29;98661.27;107552;1310;22244;-44
2023/06/27 06:13:07;;;;;;;9.50;3.30;;;;;;;17.62;89.04;98660.78;107555;1311;22423;-52
2023/06/27 06:15:32;;;;;;;11.50;3.20;;;;;;;17.58;89.43;98657.18;107541;1310;23109;-46
2023/06/27 06:17:57;;;;;;;9.30;2.70;;;;;;;17.65;88.83;98661.53;107546;1310;22673;-47
2023/06/27 06:20:23;;;;;;;7.90;2.80;;;;;;;17.74;88.54;98661.55;107549;1311;22969;-51
2023/06/27 06:22:48;;;;;;;7.40;2.10;;;;;;;17.79;88.61;98666.27;107568;1310;22272;-50
2023/06/27 06:25:13;;;;;;;7.50;2.50;;;;;;;17.72;87.43;98668.02;107542;1310;22218;-48
2023/06/27 06:27:38;;;;;;;5.90;2.10;;;;;;;17.78;87.23;98665.69;107551;1310;22346;-53
2023/06/27 06:30:04;;;;;;;7.40;2.60;;;;;;;17.68;86.99;98671.50;107540;1310;22303;-44
2023/06/27 06:32:29;;;;;;;7.30;2.60;;;;;;;17.70;87.05;98667.08;107547;1311;22348;-53
2023/06/27 06:34:55;;;;;;;9.30;2.60;;;;;;;17.82;87.04;98669.49;107557;1311;22169;-45
2023/06/27 06:37:20;;;;;;;8.10;2.50;;;;;;;17.90;85.62;98680.65;107558;1311;23025;-48
2023/06/27 06:39:46;;;;;;;6.60;2.20;;;;;;;17.83;85.15;98672.45;107573;1311;22966;-49
2023/06/27 06:42:11;;;;;;;6.90;2.10;;;;;;;17.82;84.33;98673.82;107558;1311;22456;-49
2023/06/27 06:44:36;;;;;;;3.80;1.80;;;;;;;17.83;83.67;98685.58;107560;1311;23089;-50
2023/06/27 06:47:02;;;;;;;12.90;2.20;;;;;;;17.92;82.85;98681.90;107542;1311;22220;-50
2023/06/27 06:49:27;;;;;;;7.10;2.30;;;;;;;17.87;81.92;98683.94;107558;1310;23096;-47
2023/06/27 06:51:53;;;;;;;7.30;2.30;;;;;;;17.96;81.27;98688.20;107540;1310;22196;-50
2023/06/27 06:54:18;;;;;;;4.90;1.70;;;;;;;18.06;81.18;98681.95;107540;1310;22452;-44
2023/06/27 06:56:43;;;;;;;6.60;2.20;;;;;;;18.27;80.94;98675.33;107578;1310;22230;-46
2023/06/27 06:59:09;;;;;;;5.20;1.60;;;;;;;18.41;80.41;98682.66;107558;1310;22243;-46
2023/06/27 07:01:34;;;;;;;3.50;1.90;;;;;;;18.51;78.78;98689.02;107557;1310;23078;-51
2023/06/27 07:03:59;;;;;;;4.30;1.80;;;;;;;18.53;78.46;98688.11;107134;1310;22201;-53
2023/06/27 07:06:25;;;;;;;7.10;1.90;;;;;;;18.53;77.97;98692.18;107547;1311;22309;-46
2023/06/27 07:08:52;;;;;;;6.60;2.00;;;;;;;18.38;76.77;98688.48;107556;1311;22415;-50
2023/06/27 07:11:17;;;;;;;6.20;2.00;;;;;;;18.45;77.27;98695.06;107655;1310;22313;-49
2023/06/27 07:13:43;;;;;;;7.70;2.00;;;;;;;18.40;75.77;98698.20;107636;1310;22468;-51
2023/06/27 07:16:08;;;;;;;6.20;2.20;;;;;;;18.48;74.97;98703.64;107651;1310;22278;-45
2023/06/27 07:18:33;;;;;;;6.60;1.80;;;;;;;18.56;74.28;98710.71;107637;1310;23036;-47
2023/06/27 07:20:58;;;;;;;12.10;2.20;;;;;;;18.54;73.91;98706.23;107651;1310;22247;-53
2023/06/27 07:23:24;;;;;;;5.00;1.80;;;;;;;18.44;73.16;98705.42;107650;1310;22265;-53
2023/06/27 07:25:49;;;;;;;3.90;1.70;;;;;;;18.42;73.26;98702.61;107516;1310;22561;-46
2023/06/27 07:28:14;;;;;;;5.80;1.70;;;;;;;18.44;72.98;98699.75;107337;1310;22413;-45
2023/06/27 07:30:39;;;;;;;6.60;1.90;;;;;;;18.40;72.96;98699.80;107623;1304;22455;-54
2023/06/27 07:33:05;;;;;;;13.00;1.90;;;;;;;18.45;72.68;98703.77;107699;1302;22883;-51
2023/06/27 07:35:30;;;;;;;8.50;2.10;;;;;;;18.45;71.87;98704.30;107627;1310;22386;-41
2023/06/27 07:37:55;;;;;;;6.70;1.60;;;;;;;18.48;72.35;98702.20;107647;1310;23211;-45
2023/06/27 07:40:21;;;;;;;4.60;1.70;;;;;;;18.49;72.68;98705.71;107612;1305;22430;-47
2023/06/27 07:42:46;;;;;;;6.70;1.50;;;;;;;18.58;72.29;98704.77;107633;1310;22366;-48
2023/06/27 07:45:11;;;;;;;5.00;1.70;;;;;;;18.63;69.50;98706.83;107633;1301;22279;-52
2023/06/27 07:47:36;;;;;;;7.60;1.70;;;;;;;18.75;69.51;98697.48;107642;1310;23143;-50
2023/06/27 07:50:02;;;;;;;6.90;1.90;;;;;;;18.70;69.37;98692.76;107658;1301;22405;-46
2023/06/27 07:52:28;;;;;;;4.20;1.60;;;;;;;18.76;68.03;98685.08;107715;1301;22424;-49
2023/06/27 07:54:53;;;;;;;6.10;1.40;;;;;;;18.83;67.37;98687.30;107696;1301;22230;-43
2023/06/27 07:57:18;;;;;;;6.70;1.70;;;;;;;18.89;66.35;98690.94;107703;1301;22478;-51
2023/06/27 07:59:44;;;;;;;8.60;1.60;;;;;;;18.93;65.67;98682.55;107678;1308;22225;-47
2023/06/27 08:02:09;;;;;;;4.30;1.50;;;;;;;19.04;65.98;98683.60;107690;1301;22571;-47
2023/06/27 08:04:35;;;;;;;5.40;1.60;;;;;;;19.12;66.38;98681.38;107700;1301;22377;-49
2023/06/27 08:07:00;;;;;;;6.00;1.60;;;;;;;19.17;66.45;98679.41;107661;1308;22238;-55
2023/06/27 08:09:25;;;;;;;5.50;1.70;;;;;;;19.25;64.86;98683.17;107636;1310;22393;-46
2023/06/27 08:11:51;;;;;;;2.50;1.50;;;;;;;19.31;62.63;98680.19;107602;1310;22410;-49
2023/06/27 08:14:16;;;;;;;5.40;1.80;;;;;;;19.37;61.44;98679.20;107619;1305;22452;-48
2023/06/27 08:16:42;;;;;;;6.60;1.60;;;;;;;19.43;61.53;98677.95;107642;1310;22247;-48
2023/06/27 08:19:07;;;;;;;3.20;1.30;;;;;;;19.60;60.63;98675.67;107639;1310;23038;-46
2023/06/27 08:21:32;;;;;;;6.90;1.60;;;;;;;19.66;59.33;98677.67;107646;1309;22259;-42
2023/06/27 08:23:58;;;;;;;7.60;1.60;;;;;;;19.72;59.91;98673.15;107648;1310;22261;-46
2023/06/27 08:26:23;;;;;;;5.40;1.90;;;;;;;19.73;61.36;98673.29;107627;1307;22346;-50
2023/06/27 08:28:48;;;;;;;9.60;2.10;;;;;;;19.65;61.31;98680.77;107698;1309;22233;-47
2023/06/27 08:31:13;;;;;;;5.80;1.50;;;;;;;19.70;61.46;98679.97;107669;1307;22271;-45
2023/06/27 08:33:39;;;;;;;3.60;1.60;;;;;;;19.76;59.97;98681.33;107694;1309;22959;-49
2023/06/27 08:36:06;;;;;;;7.20;1.50;;;;;;;19.81;57.64;98681.76;107696;1308;22302;-52
2023/06/27 08:38:31;;;;;;;3.40;1.10;;;;;;;19.95;55.95;98674.52;107706;1309;22419;-50
2023/06/27 08:40:56;;;;;;;7.40;1.20;;;;;;;20.24;55.74;98683.64;107669;1309;22464;-48
2023/06/27 08:43:22;;;;;;;6.90;1.50;;;;;;;20.40;53.60;98699.18;107669;1309;22386;-50
2023/06/27 08:45:49;;;;;;;4.20;1.30;;;;;;;20.53;53.24;98696.92;107710;1309;23051;-47
2023/06/27 08:48:17;;;;;;;9.00;3.10;;;;;;;20.67;53.28;98691.54;107706;1309;22217;-46
2023/06/27 08:50:43;;;;;;;6.20;1.30;;;;;;;20.75;52.41;98692.36;107694;1309;22878;-44
2023/06/27 08:53:19;;;;;;;7.00;1.30;;;;;;;20.77;52.51;98688.55;107741;1308;22408;-55
2023/06/27 08:55:44;;;;;;;5.50;1.60;;;;;;;20.84;52.39;98686.75;107768;1308;22315;-48
2023/06/27 08:58:19;;;;;;;8.30;1.30;;;;;;;20.77;52.12;98676.26;107805;1308;22240;-55
2023/06/27 09:00:46;;;;;;;4.30;1.90;;;;;;;20.64;51.89;98687.27;107753;1308;22218;-43
2023/06/27 09:03:12;;;;;;;5.50;1.50;;;;;;;20.66;51.97;98694.02;107839;1308;23169;-52
2023/06/27 09:05:38;;;;;;;8.20;1.40;;;;;;;20.86;52.39;98687.38;107830;1308;22181;-46
2023/06/27 09:08:04;;;;;;;7.80;1.50;;;;;;;21.06;50.99;98680.11;107808;1308;22334;-46
2023/06/27 09:10:30;;;;;;;8.20;1.40;;;;;;;21.19;50.20;98692.41;107781;1308;22259;-50
2023/06/27 09:12:56;;;;;;;8.50;1.30;;;;;;;21.08;50.39;98696.79;107837;1308;22203;-50
2023/06/27 09:15:22;;;;;;;7.70;1.30;;;;;;;20.86;49.85;98700.02;107799;1308;22228;-50
2023/06/27 09:17:47;;;;;;;6.50;1.20;;;;;;;21.00;50.91;98695.89;107798;1308;22254;-52
2023/06/27 09:20:19;;;;;;;3.80;1.30;;;;;;;21.27;48.29;98699.92;107519;1308;22561;-50
2023/06/27 09:22:45;;;;;;;2.70;1.40;;;;;;;21.53;46.79;98695.41;107563;1308;22591;-46
2023/06/27 09:25:11;;;;;;;15.60;2.50;;;;;;;21.73;46.59;98701.00;107000;1308;22575;-46
2023/06/27 09:27:37;;;;;;;3.40;1.00;;;;;;;21.92;46.41;98711.36;107463;1308;22423;-52
2023/06/27 09:30:12;;;;;;;4.30;1.20;;;;;;;21.90;45.99;98712.77;107613;1293;22592;-49
2023/06/27 09:32:57;;;;;;;10.00;1.50;;;;;;;22.09;45.63;98728.21;107025;1309;22595;-47
2023/06/27 09:35:24;;;;;;;5.10;1.30;;;;;;;22.49;43.78;98715.27;106807;1302;22462;-50
2023/06/27 09:37:50;;;;;;;;;;;;;;;22.68;42.87;98722.37;107243;1297;22527;-50
2023/06/27 09:40:20;;;;;;;4.10;0.80;;;;;;;22.97;41.86;98719.81;106633;1305;22577;-49
2023/06/27 09:42:52;;;;;;;7.90;1.70;;;;;;;23.53;42.11;98707.55;107320;1308;22330;-51
2023/06/27 09:45:19;;;;;;;4.50;1.30;;;;;;;23.94;40.44;98705.91;106960;1301;22576;-49
2023/06/27 09:47:47;;;;;;;6.70;1.20;;;;;;;24.34;40.71;98711.61;107761;1308;22595;-48
2023/06/27 09:50:13;;;;;;;2.20;1.20;;;;;;;24.80;39.55;98711.58;107788;1301;22213;-48
2023/06/27 09:52:38;;;;;;;3.50;1.00;;;;;;;25.20;36.74;98721.13;107155;1309;22215;-49
2023/06/27 09:55:15;;;;;;;7.50;1.20;;;;;;;25.28;36.25;98719.58;107754;1309;22246;-52
2023/06/27 09:57:42;;;;;;;4.30;1.30;;;;;;;25.78;36.31;98727.98;107769;1308;23082;-44
2023/06/27 10:00:09;;;;;;;6.20;1.30;;;;;;;25.84;36.47;98725.09;107708;1304;22431;-50
2023/06/27 10:02:35;;;;;;;;;;;;;;;26.15;36.53;98727.36;107754;1306;22438;-57
2023/06/27 10:05:00;;;;;;;4.40;1.40;;;;;;;26.23;35.09;98730.89;107771;1308;22247;-53
2023/06/27 10:07:25;;;;;;;3.70;1.10;;;;;;;26.28;34.01;98727.18;107712;1304;23322;-43
2023/06/27 10:09:51;;;;;;;3.00;0.90;;;;;;;26.07;34.28;98738.13;107756;1304;23021;-47
2023/06/27 10:12:17;;;;;;;6.30;1.60;;;;;;;25.56;34.44;98739.38;107770;1308;22242;-49
2023/06/27 10:14:46;;;;;;;2.70;1.30;;;;;;;25.36;34.57;98728.61;107754;1301;22758;-44
2023/06/27 10:17:18;;;;;;;3.50;1.10;;;;;;;25.74;35.09;98727.58;107800;1304;22259;-50
2023/06/27 10:19:44;;;;;;;2.20;1.10;;;;;;;26.27;33.82;98737.17;107726;1309;22214;-54
2023/06/27 10:22:13;;;;;;;12.80;1.10;;;;;;;26.56;32.64;98736.14;107739;1308;22196;-48
2023/06/27 10:24:41;;;;;;;6.00;1.20;;;;;;;26.48;32.56;98732.05;107685;1309;22657;-49
2023/06/27 10:27:07;;;;;;;6.00;1.50;;;;;;;26.48;31.67;98736.02;107707;1301;22549;-44
2023/06/27 10:29:33;;;;;;;3.80;1.50;;;;;;;26.64;31.74;98735.86;107325;1304;22546;-42
2023/06/27 10:31:59;;;;;;;2.50;1.20;;;;;;;26.42;31.93;98734.25;107078;1309;22583;-44
2023/06/27 10:34:25;;;;;;;11.50;1.40;;;;;;;26.08;32.56;98731.17;107756;1305;22257;-53
2023/06/27 10:36:51;;;;;;;5.70;1.20;;;;;;;26.15;32.44;98732.20;107086;1309;22570;-49
2023/06/27 10:39:24;;;;;;;;;;;;;;;26.44;31.90;98729.21;107104;1301;22490;-46
2023/06/27 10:41:49;;;;;;;5.40;1.50;;;;;;;26.30;31.66;98722.30;107063;1301;26643;-47
2023/06/27 10:44:17;;;;;;;3.70;1.60;;;;;;;26.47;31.99;98718.90;106764;1308;22559;-46
2023/06/27 10:46:43;;;;;;;11.10;1.10;;;;;;;26.96;31.94;98725.40;107090;1295;22571;-46
2023/06/27 10:49:09;;;;;;;2.80;1.40;;;;;;;27.34;30.77;98723.94;106897;1301;22229;-48
2023/06/27 10:51:41;;;;;;;4.80;1.40;;;;;;;27.64;30.35;98724.39;107538;1288;22415;-45
2023/06/27 10:54:06;;;;;;;7.80;1.10;;;;;;;27.78;30.37;98725.59;107381;1303;22257;-56
2023/06/27 10:56:33;;;;;;;3.00;1.20;;;;;;;27.28;30.82;98723.34;107768;1308;22222;-55
2023/06/27 10:58:59;;;;;;;5.90;1.50;;;;;;;26.86;30.88;98725.99;107700;1302;22244;-50
2023/06/27 11:01:25;;;;;;;3.70;1.20;;;;;;;26.67;31.39;98733.23;107162;1306;22504;-58
2023/06/27 11:03:56;;;;;;;11.80;1.40;;;;;;;27.13;30.62;98728.57;107738;1301;22231;-50
2023/06/27 11:06:38;;;;;;;8.90;1.80;;;;;;;27.33;30.65;98728.38;107304;1308;22581;-48
2023/06/27 11:09:04;;;;;;;5.10;1.40;;;;;;;27.84;29.87;98725.88;107614;1308;22595;-47
2023/06/27 11:11:31;;;;;;;5.10;1.20;;;;;;;28.00;29.51;98719.74;106878;1308;22227;-43
2023/06/27 11:14:07;;;;;;;8.10;1.40;;;;;;;27.37;30.05;98726.00;107138;1304;22734;-53
2023/06/27 11:16:34;;;;;;;2.40;1.20;;;;;;;26.75;31.15;98728.33;106750;1304;22592;-49
2023/06/27 11:19:00;;;;;;;;;;;;;;;27.01;30.80;98722.17;107157;1308;22563;-48